Eye Of The Wind — GWAK — position and weather

sailwx.info

Track history (hours):
 
Tides and Currents Weather Stations Pressure Air Temp Water Temp Dewpoint Dewpoint Depression Visibility Wind Speed Wind Dir Waves Ship Positions

Eye Of The Wind

Last reported at 2020-Mar-31 06:28 UTC. Time now 2020-Mar-31 06:38 UTC.
Position N 38°24' W 028°16'.

Length 33 m; draft 2.8 m.

Type: Sailing vessel. MMSI: 233789000.

Date/timePositionNaut miles runAvg speedWind from/ knotsBaromVisibWave heightAir tempDewpointWater temp
2020-Mar-31 06:28N 38°24' W 028°16'0 0.0
2020-Mar-31 04:58N 38°24' W 028°16'0 0.0
2020-Mar-31 04:28N 38°24' W 028°16'0 0.0
2020-Mar-31 03:28N 38°24' W 028°16'0 0.0
2020-Mar-31 00:58N 38°24' W 028°16'0 0.0
2020-Mar-30 23:28N 38°24' W 028°16'0 0.0
2020-Mar-30 21:28N 38°24' W 028°16'0 0.0
2020-Mar-30 20:58N 38°24' W 028°16'0 0.0
2020-Mar-30 17:25N 38°24' W 028°16'0 0.0
2020-Mar-30 16:30N 38°24' W 028°16'7 3.7
2020-Mar-30 14:30N 38°24' W 028°25'2 4.6
2020-Mar-30 14:00N 38°25' W 028°28'11 5.6
2020-Mar-30 12:00N 38°29' W 028°42'10 6.4
2020-Mar-30 10:30N 38°33' W 028°53'9 4.4
2020-Mar-30 08:30N 38°27' W 029°00'2 4.9
2020-Mar-30 08:00N 38°25' W 029°02'12 5.8
2020-Mar-30 06:00N 38°26' W 029°17'3 5.7
2020-Mar-30 05:30N 38°26' W 029°20'6 5.6
2020-Mar-30 04:30N 38°26' W 029°27'14 5.5
2020-Mar-30 01:57N 38°24' W 029°45'3 4.9
2020-Mar-30 01:16N 38°23' W 029°49'  
Track history (hours):
 
Tides and Currents Weather Stations Pressure Air Temp Water Temp Dewpoint Dewpoint Depression Visibility Wind Speed Wind Dir Waves Ship Positions

Eye Of The Wind

Last reported at 2020-Mar-31 06:28 UTC. Time now 2020-Mar-31 06:38 UTC.
Position N 38°24' W 028°16'.

Length 33 m; draft 2.8 m.

Type: Sailing vessel. MMSI: 233789000.

Date/timePositionNaut miles runAvg speedWind from/ knotsBaromVisibWave heightAir tempDewpointWater temp
2020-Mar-31 06:28N 38°24' W 028°16'0 0.0
2020-Mar-31 04:58N 38°24' W 028°16'0 0.0
2020-Mar-31 04:28N 38°24' W 028°16'0 0.0
2020-Mar-31 03:28N 38°24' W 028°16'0 0.0
2020-Mar-31 00:58N 38°24' W 028°16'0 0.0
2020-Mar-30 23:28N 38°24' W 028°16'0 0.0
2020-Mar-30 21:28N 38°24' W 028°16'0 0.0
2020-Mar-30 20:58N 38°24' W 028°16'0 0.0
2020-Mar-30 17:25N 38°24' W 028°16'0 0.0
2020-Mar-30 16:30N 38°24' W 028°16'7 3.7
2020-Mar-30 14:30N 38°24' W 028°25'2 4.6
2020-Mar-30 14:00N 38°25' W 028°28'11 5.6
2020-Mar-30 12:00N 38°29' W 028°42'10 6.4
2020-Mar-30 10:30N 38°33' W 028°53'9 4.4
2020-Mar-30 08:30N 38°27' W 029°00'2 4.9
2020-Mar-30 08:00N 38°25' W 029°02'12 5.8
2020-Mar-30 06:00N 38°26' W 029°17'3 5.7
2020-Mar-30 05:30N 38°26' W 029°20'6 5.6
2020-Mar-30 04:30N 38°26' W 029°27'14 5.5
2020-Mar-30 01:57N 38°24' W 029°45'3 4.9
2020-Mar-30 01:16N 38°23' W 029°49'  

Dump ship's entire track history